sensor_id;sensor_type;location;lat;lon;timestamp;pressure;altitude;pressure_sealevel;temperature;humidity
35435;BME280;21556;55.782;37.528;2024-03-22T00:02:10;100160.75;;;6.21;67.69
35435;BME280;21556;55.782;37.528;2024-03-22T00:04:36;100160.69;;;6.40;68.06
35435;BME280;21556;55.782;37.528;2024-03-22T00:07:02;100164.13;;;6.39;67.48
35435;BME280;21556;55.782;37.528;2024-03-22T00:09:30;100163.03;;;6.34;68.21
35435;BME280;21556;55.782;37.528;2024-03-22T00:11:57;100162.09;;;6.32;69.10
35435;BME280;21556;55.782;37.528;2024-03-22T00:14:23;100161.53;;;6.62;66.70
35435;BME280;21556;55.782;37.528;2024-03-22T00:16:50;100151.56;;;6.51;67.73
35435;BME280;21556;55.782;37.528;2024-03-22T00:19:16;100156.16;;;6.80;65.48
35435;BME280;21556;55.782;37.528;2024-03-22T00:21:42;100148.28;;;6.35;66.32
35435;BME280;21556;55.782;37.528;2024-03-22T00:24:08;100150.50;;;6.46;66.67
35435;BME280;21556;55.782;37.528;2024-03-22T00:26:34;100144.09;;;6.61;64.94
35435;BME280;21556;55.782;37.528;2024-03-22T00:29:00;100145.47;;;6.73;64.11
35435;BME280;21556;55.782;37.528;2024-03-22T00:31:26;100150.97;;;6.59;64.66
35435;BME280;21556;55.782;37.528;2024-03-22T00:33:52;100145.78;;;6.81;63.62
35435;BME280;21556;55.782;37.528;2024-03-22T00:36:18;100152.56;;;6.33;67.82
35435;BME280;21556;55.782;37.528;2024-03-22T00:38:45;100153.13;;;6.46;65.62
35435;BME280;21556;55.782;37.528;2024-03-22T00:41:12;100144.91;;;6.37;66.32
35435;BME280;21556;55.782;37.528;2024-03-22T00:43:37;100143.72;;;6.08;67.94
35435;BME280;21556;55.782;37.528;2024-03-22T00:46:03;100159.53;;;5.72;72.19
35435;BME280;21556;55.782;37.528;2024-03-22T00:48:35;100159.25;;;5.66;73.95
35435;BME280;21556;55.782;37.528;2024-03-22T00:51:01;100161.19;;;5.51;76.38
35435;BME280;21556;55.782;37.528;2024-03-22T00:53:28;100156.63;;;5.45;76.68
35435;BME280;21556;55.782;37.528;2024-03-22T00:55:55;100160.59;;;5.57;77.90
35435;BME280;21556;55.782;37.528;2024-03-22T00:58:25;100154.88;;;5.65;77.46
35435;BME280;21556;55.782;37.528;2024-03-22T01:00:51;100159.69;;;5.37;78.28
35435;BME280;21556;55.782;37.528;2024-03-22T01:03:17;100153.97;;;5.24;80.59
35435;BME280;21556;55.782;37.528;2024-03-22T01:05:44;100151.84;;;5.35;81.33
35435;BME280;21556;55.782;37.528;2024-03-22T01:08:12;100154.63;;;5.40;82.18
35435;BME280;21556;55.782;37.528;2024-03-22T01:10:38;100143.19;;;5.55;78.90
35435;BME280;21556;55.782;37.528;2024-03-22T01:13:05;100151.63;;;5.50;80.63
35435;BME280;21556;55.782;37.528;2024-03-22T01:15:31;100154.56;;;5.38;80.90
35435;BME280;21556;55.782;37.528;2024-03-22T01:17:57;100146.34;;;5.29;82.12
35435;BME280;21556;55.782;37.528;2024-03-22T01:20:23;100145.03;;;5.58;80.63
35435;BME280;21556;55.782;37.528;2024-03-22T01:22:50;100137.03;;;5.94;77.10
35435;BME280;21556;55.782;37.528;2024-03-22T01:25:16;100136.34;;;5.58;78.03
35435;BME280;21556;55.782;37.528;2024-03-22T01:27:43;100124.16;;;5.97;75.18
35435;BME280;21556;55.782;37.528;2024-03-22T01:30:09;100118.44;;;6.06;74.32
35435;BME280;21556;55.782;37.528;2024-03-22T01:32:36;100118.56;;;5.68;77.06
35435;BME280;21556;55.782;37.528;2024-03-22T01:35:02;100119.53;;;5.91;76.09
35435;BME280;21556;55.782;37.528;2024-03-22T01:37:28;100127.78;;;6.00;74.55
35435;BME280;21556;55.782;37.528;2024-03-22T01:39:54;100115.16;;;5.90;73.85
35435;BME280;21556;55.782;37.528;2024-03-22T01:42:20;100110.47;;;6.23;70.80
35435;BME280;21556;55.782;37.528;2024-03-22T01:44:46;100110.41;;;6.22;71.12
35435;BME280;21556;55.782;37.528;2024-03-22T01:47:14;100114.06;;;6.05;71.24
35435;BME280;21556;55.782;37.528;2024-03-22T01:49:40;100105.31;;;5.83;72.42
35435;BME280;21556;55.782;37.528;2024-03-22T01:52:08;100104.34;;;5.60;73.62
35435;BME280;21556;55.782;37.528;2024-03-22T01:54:34;100108.13;;;5.47;74.01
35435;BME280;21556;55.782;37.528;2024-03-22T01:57:00;100111.78;;;5.31;74.59
35435;BME280;21556;55.782;37.528;2024-03-22T01:59:25;100113.22;;;5.25;77.79
35435;BME280;21556;55.782;37.528;2024-03-22T02:01:52;100107.88;;;5.62;74.77
35435;BME280;21556;55.782;37.528;2024-03-22T02:04:18;100114.72;;;5.00;77.15
35435;BME280;21556;55.782;37.528;2024-03-22T02:06:43;100100.78;;;5.58;75.11
35435;BME280;21556;55.782;37.528;2024-03-22T02:09:10;100105.78;;;5.53;75.98
35435;BME280;21556;55.782;37.528;2024-03-22T02:11:36;100101.66;;;4.99;80.11
35435;BME280;21556;55.782;37.528;2024-03-22T02:14:03;100100.72;;;5.37;78.00
35435;BME280;21556;55.782;37.528;2024-03-22T02:16:29;100092.22;;;5.61;75.07
35435;BME280;21556;55.782;37.528;2024-03-22T02:18:55;100088.47;;;5.54;75.39
35435;BME280;21556;55.782;37.528;2024-03-22T02:21:21;100090.63;;;5.24;77.91
35435;BME280;21556;55.782;37.528;2024-03-22T02:23:47;100094.31;;;5.29;80.32
35435;BME280;21556;55.782;37.528;2024-03-22T02:26:13;100097.22;;;5.16;79.95
35435;BME280;21556;55.782;37.528;2024-03-22T02:28:39;100100.09;;;5.02;82.42
35435;BME280;21556;55.782;37.528;2024-03-22T02:31:05;100083.25;;;5.54;79.18
35435;BME280;21556;55.782;37.528;2024-03-22T02:33:33;100090.13;;;5.32;80.80
35435;BME280;21556;55.782;37.528;2024-03-22T02:35:59;100086.88;;;5.17;82.80
35435;BME280;21556;55.782;37.528;2024-03-22T02:38:25;100091.94;;;4.95;87.17
35435;BME280;21556;55.782;37.528;2024-03-22T02:40:52;100088.78;;;5.21;85.63
35435;BME280;21556;55.782;37.528;2024-03-22T02:43:18;100086.13;;;5.20;84.49
35435;BME280;21556;55.782;37.528;2024-03-22T02:45:45;100084.78;;;5.29;85.50
35435;BME280;21556;55.782;37.528;2024-03-22T02:48:11;100072.44;;;5.24;86.06
35435;BME280;21556;55.782;37.528;2024-03-22T02:50:37;100076.06;;;4.89;88.74
35435;BME280;21556;55.782;37.528;2024-03-22T02:53:04;100068.72;;;5.19;87.06
35435;BME280;21556;55.782;37.528;2024-03-22T02:55:35;100068.78;;;4.81;91.23
35435;BME280;21556;55.782;37.528;2024-03-22T02:58:03;100068.16;;;4.48;93.54
35435;BME280;21556;55.782;37.528;2024-03-22T03:00:29;100068.94;;;5.23;89.55
35435;BME280;21556;55.782;37.528;2024-03-22T03:02:54;100064.47;;;4.82;91.67
35435;BME280;21556;55.782;37.528;2024-03-22T03:05:20;100078.16;;;4.58;94.28
35435;BME280;21556;55.782;37.528;2024-03-22T03:07:48;100069.53;;;4.59;96.78
35435;BME280;21556;55.782;37.528;2024-03-22T03:10:18;100061.88;;;5.21;91.54
35435;BME280;21556;55.782;37.528;2024-03-22T03:12:46;100067.50;;;5.11;92.09
35435;BME280;21556;55.782;37.528;2024-03-22T03:15:12;100071.03;;;4.54;95.78
35435;BME280;21556;55.782;37.528;2024-03-22T03:17:47;100065.09;;;4.39;98.86
35435;BME280;21556;55.782;37.528;2024-03-22T03:20:13;100061.78;;;4.61;96.62
35435;BME280;21556;55.782;37.528;2024-03-22T03:22:42;100066.94;;;4.59;98.95
35435;BME280;21556;55.782;37.528;2024-03-22T03:25:08;100059.44;;;4.85;97.24
35435;BME280;21556;55.782;37.528;2024-03-22T03:27:34;100057.31;;;4.76;96.25
35435;BME280;21556;55.782;37.528;2024-03-22T03:30:00;100059.75;;;4.54;98.00
35435;BME280;21556;55.782;37.528;2024-03-22T03:32:27;100054.63;;;4.55;100.00
35435;BME280;21556;55.782;37.528;2024-03-22T03:34:54;100049.75;;;4.44;100.00
35435;BME280;21556;55.782;37.528;2024-03-22T03:37:20;100051.81;;;4.70;99.07
35435;BME280;21556;55.782;37.528;2024-03-22T03:39:46;100043.63;;;4.80;97.88
35435;BME280;21556;55.782;37.528;2024-03-22T03:42:12;100045.53;;;4.85;95.95
35435;BME280;21556;55.782;37.528;2024-03-22T03:44:37;100043.19;;;4.52;99.16
35435;BME280;21556;55.782;37.528;2024-03-22T03:47:03;100041.72;;;4.39;100.00
35435;BME280;21556;55.782;37.528;2024-03-22T03:49:29;100050.81;;;4.29;100.00
35435;BME280;21556;55.782;37.528;2024-03-22T03:51:54;100045.13;;;4.56;100.00
35435;BME280;21556;55.782;37.528;2024-03-22T03:54:20;100042.31;;;4.51;100.00
35435;BME280;21556;55.782;37.528;2024-03-22T03:56:46;100040.81;;;4.19;100.00
35435;BME280;21556;55.782;37.528;2024-03-22T03:59:12;100038.72;;;4.30;100.00
35435;BME280;21556;55.782;37.528;2024-03-22T04:01:37;100034.91;;;4.61;100.00
35435;BME280;21556;55.782;37.528;2024-03-22T04:04:03;100032.59;;;4.86;100.00
35435;BME280;21556;55.782;37.528;2024-03-22T04:06:29;100037.16;;;4.53;100.00
35435;BME280;21556;55.782;37.528;2024-03-22T04:08:55;100039.44;;;4.65;100.00
35435;BME280;21556;55.782;37.528;2024-03-22T04:11:23;100032.84;;;4.34;100.00
35435;BME280;21556;55.782;37.528;2024-03-22T04:13:48;100034.94;;;4.23;100.00
35435;BME280;21556;55.782;37.528;2024-03-22T04:16:14;100034.69;;;4.37;100.00
35435;BME280;21556;55.782;37.528;2024-03-22T04:18:43;100023.81;;;4.45;100.00
35435;BME280;21556;55.782;37.528;2024-03-22T04:21:09;100021.88;;;4.22;100.00
35435;BME280;21556;55.782;37.528;2024-03-22T04:23:37;100030.72;;;4.07;100.00
35435;BME280;21556;55.782;37.528;2024-03-22T04:26:02;100026.81;;;4.35;100.00
35435;BME280;21556;55.782;37.528;2024-03-22T04:28:28;100032.31;;;4.41;100.00
35435;BME280;21556;55.782;37.528;2024-03-22T04:30:59;100035.47;;;3.98;100.00
35435;BME280;21556;55.782;37.528;2024-03-22T04:33:25;100030.38;;;4.00;100.00
35435;BME280;21556;55.782;37.528;2024-03-22T04:35:51;100030.22;;;4.15;100.00
35435;BME280;21556;55.782;37.528;2024-03-22T04:38:18;100032.19;;;4.02;100.00
35435;BME280;21556;55.782;37.528;2024-03-22T04:40:43;100032.72;;;3.95;100.00
35435;BME280;21556;55.782;37.528;2024-03-22T04:43:10;100041.09;;;4.25;100.00
35435;BME280;21556;55.782;37.528;2024-03-22T04:45:35;100030.16;;;4.70;100.00
35435;BME280;21556;55.782;37.528;2024-03-22T04:48:01;100033.41;;;4.46;100.00
35435;BME280;21556;55.782;37.528;2024-03-22T04:50:27;100035.00;;;4.81;100.00
35435;BME280;21556;55.782;37.528;2024-03-22T04:53:12;100035.09;;;4.46;100.00
35435;BME280;21556;55.782;37.528;2024-03-22T04:55:38;100036.56;;;4.58;100.00
35435;BME280;21556;55.782;37.528;2024-03-22T04:58:04;100033.94;;;4.39;100.00
35435;BME280;21556;55.782;37.528;2024-03-22T05:00:29;100026.84;;;4.93;100.00
35435;BME280;21556;55.782;37.528;2024-03-22T05:02:55;100021.72;;;4.56;100.00
35435;BME280;21556;55.782;37.528;2024-03-22T05:05:21;100026.88;;;4.74;100.00
35435;BME280;21556;55.782;37.528;2024-03-22T05:07:47;100016.06;;;4.27;100.00
35435;BME280;21556;55.782;37.528;2024-03-22T05:10:13;100023.78;;;4.44;100.00
35435;BME280;21556;55.782;37.528;2024-03-22T05:12:39;100023.50;;;4.57;100.00
35435;BME280;21556;55.782;37.528;2024-03-22T05:15:08;100015.34;;;4.49;100.00
35435;BME280;21556;55.782;37.528;2024-03-22T05:17:34;100029.16;;;4.29;100.00
35435;BME280;21556;55.782;37.528;2024-03-22T05:20:00;100026.53;;;4.47;100.00
35435;BME280;21556;55.782;37.528;2024-03-22T05:22:28;100017.00;;;4.67;100.00
35435;BME280;21556;55.782;37.528;2024-03-22T05:24:53;100016.38;;;4.53;100.00
35435;BME280;21556;55.782;37.528;2024-03-22T05:27:19;100016.97;;;4.28;100.00
35435;BME280;21556;55.782;37.528;2024-03-22T05:29:48;100011.75;;;4.65;100.00
35435;BME280;21556;55.782;37.528;2024-03-22T05:32:18;100011.56;;;4.43;100.00
35435;BME280;21556;55.782;37.528;2024-03-22T05:34:44;99997.00;;;5.04;100.00
35435;BME280;21556;55.782;37.528;2024-03-22T05:37:10;99996.84;;;5.21;100.00
35435;BME280;21556;55.782;37.528;2024-03-22T05:39:36;99993.41;;;5.22;100.00
35435;BME280;21556;55.782;37.528;2024-03-22T05:42:05;99982.44;;;5.71;100.00
35435;BME280;21556;55.782;37.528;2024-03-22T05:44:34;99991.63;;;5.63;100.00
35435;BME280;21556;55.782;37.528;2024-03-22T05:47:00;99983.34;;;5.50;100.00
35435;BME280;21556;55.782;37.528;2024-03-22T05:49:34;99981.47;;;5.90;100.00
35435;BME280;21556;55.782;37.528;2024-03-22T05:51:59;99978.47;;;6.24;100.00
35435;BME280;21556;55.782;37.528;2024-03-22T05:54:28;99981.44;;;6.33;97.20
35435;BME280;21556;55.782;37.528;2024-03-22T05:56:55;99979.09;;;6.63;96.07
35435;BME280;21556;55.782;37.528;2024-03-22T05:59:20;99965.19;;;6.64;95.43
35435;BME280;21556;55.782;37.528;2024-03-22T06:01:46;99965.84;;;7.58;89.28
35435;BME280;21556;55.782;37.528;2024-03-22T06:04:15;99965.03;;;8.14;83.34
35435;BME280;21556;55.782;37.528;2024-03-22T06:06:41;99963.88;;;8.95;77.96
35435;BME280;21556;55.782;37.528;2024-03-22T06:09:06;99950.47;;;9.85;71.29
35435;BME280;21556;55.782;37.528;2024-03-22T06:11:36;99943.88;;;11.33;64.96
35435;BME280;21556;55.782;37.528;2024-03-22T06:14:02;99937.13;;;10.53;64.35
35435;BME280;21556;55.782;37.528;2024-03-22T06:16:28;99939.72;;;10.97;63.66
35435;BME280;21556;55.782;37.528;2024-03-22T06:18:54;99936.50;;;11.14;62.31
35435;BME280;21556;55.782;37.528;2024-03-22T06:21:19;99936.88;;;11.33;62.06
35435;BME280;21556;55.782;37.528;2024-03-22T06:23:51;99922.22;;;12.02;60.22
35435;BME280;21556;55.782;37.528;2024-03-22T06:26:17;99925.28;;;11.74;59.41
35435;BME280;21556;55.782;37.528;2024-03-22T06:28:46;99907.09;;;12.53;56.51
35435;BME280;21556;55.782;37.528;2024-03-22T06:31:12;99912.88;;;12.26;56.34
35435;BME280;21556;55.782;37.528;2024-03-22T06:33:38;99904.97;;;12.97;55.06
35435;BME280;21556;55.782;37.528;2024-03-22T06:36:04;99899.31;;;13.52;52.01
35435;BME280;21556;55.782;37.528;2024-03-22T06:38:29;99897.13;;;14.16;48.55
35435;BME280;21556;55.782;37.528;2024-03-22T06:40:55;99893.03;;;15.07;46.91
35435;BME280;21556;55.782;37.528;2024-03-22T06:43:21;99898.03;;;14.25;47.96
35435;BME280;21556;55.782;37.528;2024-03-22T06:45:47;99888.56;;;14.73;47.32
35435;BME280;21556;55.782;37.528;2024-03-22T06:48:15;99876.31;;;15.56;44.09
35435;BME280;21556;55.782;37.528;2024-03-22T06:50:44;99864.84;;;15.71;42.46
35435;BME280;21556;55.782;37.528;2024-03-22T06:53:11;99861.22;;;16.08;41.71
35435;BME280;21556;55.782;37.528;2024-03-22T06:55:42;99886.88;;;15.45;42.65
35435;BME280;21556;55.782;37.528;2024-03-22T06:58:13;99886.78;;;14.67;44.24
35435;BME280;21556;55.782;37.528;2024-03-22T07:00:39;99883.34;;;15.52;42.92
35435;BME280;21556;55.782;37.528;2024-03-22T07:03:04;99883.34;;;15.09;44.00
35435;BME280;21556;55.782;37.528;2024-03-22T07:05:30;99884.25;;;15.19;42.75
35435;BME280;21556;55.782;37.528;2024-03-22T07:07:56;99865.66;;;15.97;42.00
35435;BME280;21556;55.782;37.528;2024-03-22T07:10:23;99855.63;;;16.79;40.65
35435;BME280;21556;55.782;37.528;2024-03-22T07:12:58;99848.91;;;17.50;38.95
35435;BME280;21556;55.782;37.528;2024-03-22T07:15:29;99841.41;;;17.95;38.01
35435;BME280;21556;55.782;37.528;2024-03-22T07:17:59;99852.06;;;16.89;38.74
35435;BME280;21556;55.782;37.528;2024-03-22T07:20:27;99858.63;;;15.93;40.04
35435;BME280;21556;55.782;37.528;2024-03-22T07:22:53;99856.78;;;16.21;39.99
35435;BME280;21556;55.782;37.528;2024-03-22T07:25:22;99863.81;;;16.27;39.87
35435;BME280;21556;55.782;37.528;2024-03-22T07:27:48;99850.91;;;17.25;38.34
35435;BME280;21556;55.782;37.528;2024-03-22T07:30:20;99860.44;;;15.56;39.58
35435;BME280;21556;55.782;37.528;2024-03-22T07:32:46;99845.44;;;15.75;39.14
35435;BME280;21556;55.782;37.528;2024-03-22T07:35:18;99841.84;;;16.00;39.23
35435;BME280;21556;55.782;37.528;2024-03-22T07:37:43;99855.16;;;15.42;40.30
35435;BME280;21556;55.782;37.528;2024-03-22T07:40:10;99851.59;;;15.54;39.85
35435;BME280;21556;55.782;37.528;2024-03-22T07:42:36;99839.06;;;16.32;38.08
35435;BME280;21556;55.782;37.528;2024-03-22T07:45:01;99832.00;;;16.36;38.21
35435;BME280;21556;55.782;37.528;2024-03-22T07:47:28;99830.41;;;15.86;38.36
35435;BME280;21556;55.782;37.528;2024-03-22T07:49:54;99825.13;;;15.98;38.49
35435;BME280;21556;55.782;37.528;2024-03-22T07:52:23;99817.25;;;15.71;37.58
35435;BME280;21556;55.782;37.528;2024-03-22T07:55:01;99813.19;;;16.87;36.51
35435;BME280;21556;55.782;37.528;2024-03-22T07:57:34;99806.56;;;15.97;36.21
35435;BME280;21556;55.782;37.528;2024-03-22T08:00:03;99799.47;;;16.14;35.98
35435;BME280;21556;55.782;37.528;2024-03-22T08:02:56;99795.91;;;16.20;36.25
35435;BME280;21556;55.782;37.528;2024-03-22T08:05:22;99804.03;;;15.51;37.69
35435;BME280;21556;55.782;37.528;2024-03-22T08:07:51;99780.94;;;16.12;34.14
35435;BME280;21556;55.782;37.528;2024-03-22T08:10:19;99771.63;;;16.96;34.35
35435;BME280;21556;55.782;37.528;2024-03-22T08:12:45;99759.75;;;17.34;33.80
35435;BME280;21556;55.782;37.528;2024-03-22T08:15:14;99759.41;;;16.71;33.93
35435;BME280;21556;55.782;37.528;2024-03-22T08:17:40;99763.25;;;16.21;34.64
35435;BME280;21556;55.782;37.528;2024-03-22T08:20:06;99761.63;;;15.95;35.59
35435;BME280;21556;55.782;37.528;2024-03-22T08:22:35;99749.16;;;16.20;33.94
35435;BME280;21556;55.782;37.528;2024-03-22T08:25:21;99736.03;;;17.20;31.94
35435;BME280;21556;55.782;37.528;2024-03-22T08:27:54;99728.44;;;17.68;31.17
35435;BME280;21556;55.782;37.528;2024-03-22T08:30:21;99721.78;;;16.18;31.51
35435;BME280;21556;55.782;37.528;2024-03-22T08:32:46;99735.19;;;15.87;32.45
35435;BME280;21556;55.782;37.528;2024-03-22T08:35:15;99716.34;;;16.46;30.99
35435;BME280;21556;55.782;37.528;2024-03-22T08:37:42;99723.13;;;16.85;31.30
35435;BME280;21556;55.782;37.528;2024-03-22T08:40:08;99707.09;;;16.99;30.11
35435;BME280;21556;55.782;37.528;2024-03-22T08:42:35;99707.59;;;17.38;30.77
35435;BME280;21556;55.782;37.528;2024-03-22T08:45:27;99715.19;;;16.83;31.90
35435;BME280;21556;55.782;37.528;2024-03-22T08:48:21;99705.97;;;16.10;32.20
35435;BME280;21556;55.782;37.528;2024-03-22T08:50:47;99692.50;;;16.41;31.28
35435;BME280;21556;55.782;37.528;2024-03-22T08:53:13;99712.88;;;16.36;32.96
35435;BME280;21556;55.782;37.528;2024-03-22T08:55:44;99704.94;;;16.33;32.53
35435;BME280;21556;55.782;37.528;2024-03-22T08:58:13;99698.66;;;16.49;32.16
35435;BME280;21556;55.782;37.528;2024-03-22T09:01:01;99692.69;;;17.26;31.13
35435;BME280;21556;55.782;37.528;2024-03-22T09:03:54;99686.09;;;18.30;29.87
35435;BME280;21556;55.782;37.528;2024-03-22T09:06:59;99683.22;;;17.00;29.76
35435;BME280;21556;55.782;37.528;2024-03-22T09:09:36;99681.63;;;16.82;30.56
35435;BME280;21556;55.782;37.528;2024-03-22T09:12:09;99682.25;;;15.92;31.50
35435;BME280;21556;55.782;37.528;2024-03-22T09:14:46;99679.19;;;16.52;31.03
35435;BME280;21556;55.782;37.528;2024-03-22T09:17:12;99667.56;;;16.73;30.66
35435;BME280;21556;55.782;37.528;2024-03-22T09:19:48;99668.41;;;16.79;30.64
35435;BME280;21556;55.782;37.528;2024-03-22T09:22:21;99664.16;;;17.48;30.09
35435;BME280;21556;55.782;37.528;2024-03-22T09:27:41;99662.28;;;17.58;29.62
35435;BME280;21556;55.782;37.528;2024-03-22T09:30:10;99662.41;;;16.54;30.66
35435;BME280;21556;55.782;37.528;2024-03-22T09:32:39;99667.06;;;17.26;30.85
35435;BME280;21556;55.782;37.528;2024-03-22T09:35:05;99668.03;;;17.18;30.51
35435;BME280;21556;55.782;37.528;2024-03-22T09:37:31;99663.28;;;16.59;30.10
35435;BME280;21556;55.782;37.528;2024-03-22T09:39:57;99656.44;;;17.99;29.68
35435;BME280;21556;55.782;37.528;2024-03-22T09:42:22;99667.34;;;17.77;29.33
35435;BME280;21556;55.782;37.528;2024-03-22T09:44:49;99667.28;;;17.84;29.18
35435;BME280;21556;55.782;37.528;2024-03-22T09:47:18;99655.34;;;18.71;28.17
35435;BME280;21556;55.782;37.528;2024-03-22T09:49:46;99651.34;;;17.82;29.31
35435;BME280;21556;55.782;37.528;2024-03-22T09:52:14;99659.53;;;17.64;29.70
35435;BME280;21556;55.782;37.528;2024-03-22T09:54:43;99646.75;;;17.25;29.09
35435;BME280;21556;55.782;37.528;2024-03-22T09:57:09;99656.78;;;16.94;30.20
35435;BME280;21556;55.782;37.528;2024-03-22T09:59:40;99665.25;;;16.31;31.84
35435;BME280;21556;55.782;37.528;2024-03-22T10:02:05;99656.19;;;16.63;31.71
35435;BME280;21556;55.782;37.528;2024-03-22T10:04:33;99661.84;;;17.17;31.61
35435;BME280;21556;55.782;37.528;2024-03-22T10:07:02;99653.44;;;16.69;31.38
35435;BME280;21556;55.782;37.528;2024-03-22T10:09:28;99656.16;;;17.51;31.13
35435;BME280;21556;55.782;37.528;2024-03-22T10:11:56;99655.81;;;17.80;30.39
35435;BME280;21556;55.782;37.528;2024-03-22T10:14:21;99634.38;;;18.51;29.99
35435;BME280;21556;55.782;37.528;2024-03-22T10:16:47;99637.06;;;17.92;30.86
35435;BME280;21556;55.782;37.528;2024-03-22T10:19:13;99638.50;;;17.48;30.98
35435;BME280;21556;55.782;37.528;2024-03-22T10:21:39;99621.41;;;16.98;29.92
35435;BME280;21556;55.782;37.528;2024-03-22T10:24:05;99624.97;;;17.70;30.23
35435;BME280;21556;55.782;37.528;2024-03-22T10:26:32;99617.38;;;17.39;31.34
35435;BME280;21556;55.782;37.528;2024-03-22T10:28:58;99612.38;;;17.87;31.30
35435;BME280;21556;55.782;37.528;2024-03-22T10:31:24;99617.16;;;16.85;32.02
35435;BME280;21556;55.782;37.528;2024-03-22T10:33:49;99619.34;;;17.26;31.56
35435;BME280;21556;55.782;37.528;2024-03-22T10:36:16;99615.84;;;17.23;32.54
35435;BME280;21556;55.782;37.528;2024-03-22T10:38:51;99615.06;;;17.15;31.80
35435;BME280;21556;55.782;37.528;2024-03-22T10:41:25;99605.41;;;17.07;32.03
35435;BME280;21556;55.782;37.528;2024-03-22T10:43:50;99608.78;;;17.20;31.97
35435;BME280;21556;55.782;37.528;2024-03-22T10:46:16;99593.41;;;18.12;31.24
35435;BME280;21556;55.782;37.528;2024-03-22T10:48:45;99590.13;;;17.28;32.16
35435;BME280;21556;55.782;37.528;2024-03-22T10:51:16;99583.06;;;17.30;31.85
35435;BME280;21556;55.782;37.528;2024-03-22T10:53:42;99582.06;;;17.37;31.61
35435;BME280;21556;55.782;37.528;2024-03-22T10:56:08;99577.97;;;17.12;31.95
35435;BME280;21556;55.782;37.528;2024-03-22T10:58:37;99576.94;;;17.90;31.10
35435;BME280;21556;55.782;37.528;2024-03-22T11:01:04;99571.88;;;17.71;31.45
35435;BME280;21556;55.782;37.528;2024-03-22T11:03:30;99571.28;;;16.78;32.14
35435;BME280;21556;55.782;37.528;2024-03-22T11:05:58;99567.53;;;16.05;32.89
35435;BME280;21556;55.782;37.528;2024-03-22T11:08:27;99582.97;;;15.25;34.37
35435;BME280;21556;55.782;37.528;2024-03-22T11:10:54;99585.47;;;15.54;34.21
35435;BME280;21556;55.782;37.528;2024-03-22T11:13:23;99582.09;;;15.22;34.57
35435;BME280;21556;55.782;37.528;2024-03-22T11:15:49;99583.91;;;15.01;34.23
35435;BME280;21556;55.782;37.528;2024-03-22T11:18:15;99571.41;;;15.45;33.75
35435;BME280;21556;55.782;37.528;2024-03-22T11:20:41;99562.84;;;14.80;34.59
35435;BME280;21556;55.782;37.528;2024-03-22T11:23:07;99565.53;;;14.44;35.20
35435;BME280;21556;55.782;37.528;2024-03-22T11:25:34;99564.63;;;14.82;35.01
35435;BME280;21556;55.782;37.528;2024-03-22T11:28:00;99560.13;;;15.09;34.73
35435;BME280;21556;55.782;37.528;2024-03-22T11:30:31;99558.28;;;15.29;34.64
35435;BME280;21556;55.782;37.528;2024-03-22T11:32:57;99539.75;;;15.34;34.28
35435;BME280;21556;55.782;37.528;2024-03-22T11:35:22;99554.00;;;14.93;35.49
35435;BME280;21556;55.782;37.528;2024-03-22T11:37:51;99542.63;;;14.79;35.08
35435;BME280;21556;55.782;37.528;2024-03-22T11:40:17;99540.88;;;14.62;35.93
35435;BME280;21556;55.782;37.528;2024-03-22T11:42:46;99540.91;;;14.64;36.59
35435;BME280;21556;55.782;37.528;2024-03-22T11:45:13;99533.88;;;14.60;35.78
35435;BME280;21556;55.782;37.528;2024-03-22T11:47:40;99525.97;;;14.15;37.04
35435;BME280;21556;55.782;37.528;2024-03-22T11:50:06;99528.59;;;14.12;37.29
35435;BME280;21556;55.782;37.528;2024-03-22T11:52:32;99507.47;;;14.49;36.35
35435;BME280;21556;55.782;37.528;2024-03-22T11:54:58;99504.03;;;13.87;37.02
35435;BME280;21556;55.782;37.528;2024-03-22T11:57:24;99507.47;;;14.43;37.03
35435;BME280;21556;55.782;37.528;2024-03-22T11:59:51;99503.88;;;14.73;36.13
35435;BME280;21556;55.782;37.528;2024-03-22T12:02:17;99503.06;;;14.40;37.25
35435;BME280;21556;55.782;37.528;2024-03-22T12:04:46;99492.53;;;14.19;37.29
35435;BME280;21556;55.782;37.528;2024-03-22T12:07:16;99498.75;;;13.87;38.55
35435;BME280;21556;55.782;37.528;2024-03-22T12:09:41;99492.56;;;14.20;37.82
35435;BME280;21556;55.782;37.528;2024-03-22T12:12:08;99480.22;;;14.23;38.05
35435;BME280;21556;55.782;37.528;2024-03-22T12:14:34;99477.53;;;14.64;35.63
35435;BME280;21556;55.782;37.528;2024-03-22T12:17:03;99472.19;;;14.76;37.17
35435;BME280;21556;55.782;37.528;2024-03-22T12:19:29;99473.94;;;14.77;37.43
35435;BME280;21556;55.782;37.528;2024-03-22T12:21:55;99457.38;;;14.12;37.90
35435;BME280;21556;55.782;37.528;2024-03-22T12:24:21;99444.19;;;14.28;37.65
35435;BME280;21556;55.782;37.528;2024-03-22T12:26:46;99448.59;;;14.09;37.63
35435;BME280;21556;55.782;37.528;2024-03-22T12:29:14;99440.63;;;14.33;37.47
35435;BME280;21556;55.782;37.528;2024-03-22T12:31:40;99440.56;;;14.49;37.80
35435;BME280;21556;55.782;37.528;2024-03-22T12:34:06;99446.84;;;14.09;38.30
35435;BME280;21556;55.782;37.528;2024-03-22T12:36:32;99438.06;;;14.13;38.24
35435;BME280;21556;55.782;37.528;2024-03-22T12:38:58;99435.44;;;13.86;39.23
35435;BME280;21556;55.782;37.528;2024-03-22T12:41:23;99433.66;;;14.17;38.94
35435;BME280;21556;55.782;37.528;2024-03-22T12:43:49;99418.72;;;13.93;38.50
35435;BME280;21556;55.782;37.528;2024-03-22T12:46:15;99424.84;;;14.13;38.50
35435;BME280;21556;55.782;37.528;2024-03-22T12:48:41;99423.06;;;14.28;38.04
35435;BME280;21556;55.782;37.528;2024-03-22T12:51:06;99414.31;;;14.06;38.73
35435;BME280;21556;55.782;37.528;2024-03-22T12:53:32;99406.44;;;13.98;38.40